Latest Weather Observations for Tewantin

IDQ60801

Issued at 6:32 am EST Monday 27 January 2020 (issued every 10 minutes, with the page automatically refreshed every 10 minutes)

About weather observations | Map of weather stations | Latest weather observations for QLD | Other Formats
Station Details ID: 040908 Name: TEWANTIN RSL PARK Lat: -26.39 Lon: 153.04 Height: 6.4 m
Data from the previous 72 hours. | See also: Recent months at Tewantin
Date/Time
EST
Temp
°C
App
Temp
°C
Dew
Point
°C
Rel
Hum
%
Delta-T
°C
Wind Press
QNH
hPa
Press
MSL
hPa
Rain since
9am
mm
Dir  Spd
km/h
Gust
km/h
Spd
kts
Gust
kts
27/06:30am 24.2 28.3 23.0 93 0.8 SSW 6 7 3 4 1013.3 1013.3 0.4
27/06:00am 23.5 27.4 22.5 94 0.7 SW 6 7 3 4 1013.1 1013.1 0.4
27/05:30am 23.4 27.6 21.8 91 1.1 SW 2 7 1 4 1012.8 1012.8 0.4
27/05:00am 24.4 27.6 21.3 83 2.0 E 6 9 3 5 1012.5 1012.5 0.4
27/04:30am 24.5 27.7 21.6 84 1.9 ENE 7 9 4 5 1012.4 1012.4 0.4
27/04:00am 24.3 27.5 21.6 85 1.8 ENE 7 9 4 5 1012.2 1012.2 0.4
27/03:30am 24.6 27.6 21.9 85 1.8 ENE 9 17 5 9 1012.1 1012.1 0.4
27/03:00am 24.5 27.8 21.8 85 1.8 ENE 7 11 4 6 1012.2 1012.2 0.4
27/02:30am 24.9 27.5 22.0 84 1.9 ENE 11 17 6 9 1012.7 1012.7 0.4
27/02:00am 25.0 28.1 22.1 84 1.9 ENE 9 13 5 7 1012.8 1012.8 0.4
27/01:30am 25.2 29.1 22.9 87 1.6 ENE 7 11 4 6 1013.1 1013.1 0.4
27/01:00am 25.2 28.4 22.3 84 1.9 ENE 9 17 5 9 1013.5 1013.5 0.4
27/12:30am 25.6 27.9 22.1 81 2.3 ENE 13 17 7 9 1013.7 1013.7 0.4
27/12:00am 25.8 28.4 22.7 83 2.1 ENE 13 20 7 11 1014.1 1014.1 0.4
 
Date/Time
EST
Temp
°C
App
Temp
°C
Dew
Point
°C
Rel
Hum
%
Delta-T
°C
Wind Press
QNH
hPa
Press
MSL
hPa
Rain since
9am
mm
Dir  Spd
km/h
Gust
km/h
Spd
kts
Gust
kts
26/11:30pm 25.8 28.7 23.1 85 1.8 NE 13 19 7 10 1014.3 1014.3 0.4
26/11:00pm 25.9 29.9 23.8 88 1.4 NE 9 15 5 8 1014.6 1014.6 0.4
26/10:30pm 25.8 29.9 24.0 90 1.2 ENE 9 15 5 8 1014.7 1014.7 0.4
26/10:00pm 25.3 29.5 23.5 90 1.2 ENE 7 11 4 6 1014.5 1014.5 0.4
26/09:30pm 25.1 29.1 23.7 92 1.0 ENE 9 13 5 7 1014.5 1014.5 0.4
26/09:00pm 25.2 29.9 24.3 95 0.6 ENE 7 15 4 8 1014.4 1014.4 0.4
26/08:30pm 24.8 29.3 23.9 95 0.6 ENE 7 11 4 6 1014.1 1014.1 0.4
26/08:00pm 24.9 29.6 23.9 94 0.7 SE 6 9 3 5 1013.6 1013.6 0.4
26/07:30pm 25.9 29.6 22.6 82 2.2 NE 7 9 4 5 1013.5 1013.5 0.0
26/07:00pm 26.0 29.6 22.3 80 2.5 ENE 7 11 4 6 1013.4 1013.4 0.0
26/06:30pm 26.2 29.0 21.6 76 3.1 E 9 13 5 7 1013.0 1013.0 0.0
26/06:00pm 26.5 29.3 22.3 78 2.8 ENE 11 19 6 10 1012.6 1012.6 0.0
26/05:30pm 27.0 30.1 22.8 78 2.8 ENE 11 19 6 10 1012.6 1012.6 0.0
26/05:00pm 27.9 31.3 23.3 76 3.1 NE 11 17 6 9 1012.3 1012.3 0.0
26/04:30pm 27.4 29.0 21.4 70 4.0 NE 15 22 8 12 1012.3 1012.3 0.0
26/04:00pm 28.1 30.7 22.6 72 3.7 NE 13 22 7 12 1012.4 1012.4 0.0
26/03:30pm 28.0 29.8 21.8 69 4.2 ENE 15 24 8 13 1012.6 1012.6 0.0
26/03:00pm 28.1 29.8 22.3 70 3.9 E 17 24 9 13 1012.8 1012.8 0.0
26/02:30pm 28.6 30.9 22.8 71 3.9 ENE 15 24 8 13 1013.0 1013.0 0.0
26/02:00pm 28.3 30.7 22.3 70 4.1 ENE 13 24 7 13 1013.2 1013.2 0.0
26/01:30pm 28.8 30.7 22.8 70 4.1 NE 17 24 9 13 1013.4 1013.4 0.0
26/01:00pm 29.1 31.2 23.1 70 4.1 NE 17 24 9 13 1013.6 1013.6 0.0
26/12:30pm 29.1 32.1 24.0 74 3.5 NE 15 24 8 13 1013.9 1013.9 0.0
26/12:00pm 28.4 30.9 23.1 73 3.6 NE 15 24 8 13 1014.1 1014.1 0.0
26/11:30am 27.9 29.7 22.6 73 3.6 NE 17 26 9 14 1014.3 1014.3 0.0
26/11:00am 28.5 31.4 23.2 73 3.6 NE 13 20 7 11 1014.4 1014.4 0.0
26/10:30am 27.9 31.3 23.3 76 3.1 NE 11 17 6 9 1014.3 1014.3 0.0
26/10:00am 27.8 30.9 23.6 78 2.9 NE 13 22 7 12 1014.5 1014.5 0.0
26/09:30am 26.4 30.9 22.9 81 2.4 N 4 9 2 5 1014.6 1014.6 0.0
26/09:00am 25.9 30.5 24.7 93 0.8 NNW 9 15 5 8 1014.6 1014.6 1.2
26/08:30am 24.8 30.4 24.8 100 0.0 WSW 4 7 2 4 1014.6 1014.6 1.0
26/08:00am 23.9 28.4 23.9 100 0.0 WNW 7 13 4 7 1014.6 1014.6 1.0
26/07:30am 24.5 28.6 24.0 97 0.3 NW 9 17 5 9 1014.5 1014.5 0.0
26/07:00am 24.5 29.2 24.3 99 0.1 N 7 15 4 8 1014.2 1014.2 0.0
26/06:30am 24.1 27.2 23.6 97 0.3 N 13 17 7 9 1013.7 1013.7 0.0
26/06:00am 25.3 29.7 25.0 98 0.2 NE 11 26 6 14 1013.4 1013.4 0.0
26/05:30am 23.8 28.4 23.8 100 0.0 SSE 6 7 3 4 1013.1 1013.1 0.0
26/05:00am 23.8 28.8 23.8 100 0.0 SSE 4 7 2 4 1012.7 1012.7 0.0
26/04:30am 24.3 29.4 23.3 94 0.7 ESE 2 6 1 3 1012.5 1012.5 0.0
26/04:00am 24.8 29.3 23.6 93 0.8 E 6 11 3 6 1012.4 1012.4 0.0
26/03:30am 24.8 29.3 23.6 93 0.8 E 6 9 3 5 1012.4 1012.4 0.0
26/03:00am 24.8 30.2 23.8 94 0.7 E 2 6 1 3 1012.5 1012.5 0.0
26/02:30am 25.0 29.4 23.8 93 0.8 ENE 7 11 4 6 1012.7 1012.7 0.0
26/02:00am 24.8 29.3 23.9 95 0.6 ENE 7 11 4 6 1012.7 1012.7 0.0
26/01:30am 24.9 29.5 24.2 96 0.5 ENE 7 11 4 6 1013.0 1013.0 0.0
26/01:00am 24.9 29.5 24.2 96 0.5 ENE 7 13 4 7 1013.3 1013.3 0.0
26/12:30am 25.1 30.3 24.8 98 0.2 NE 6 9 3 5 1013.5 1013.5 0.0
26/12:00am 25.6 31.1 25.3 98 0.2 NE 6 9 3 5 1013.7 1013.7 0.0
 
Date/Time
EST
Temp
°C
App
Temp
°C
Dew
Point
°C
Rel
Hum
%
Delta-T
°C
Wind Press
QNH
hPa
Press
MSL
hPa
Rain since
9am
mm
Dir  Spd
km/h
Gust
km/h
Spd
kts
Gust
kts
25/11:30pm 25.2 31.2 24.2 94 0.7 CALM 0 0 0 0 1014.1 1014.1 0.0
25/11:00pm 25.2 30.2 23.8 92 1.0 ENE 4 7 2 4 1014.2 1014.2 0.0
25/10:30pm 25.5 30.0 23.9 91 1.1 NE 7 11 4 6 1014.2 1014.2 0.0
25/10:00pm 26.0 30.3 24.2 90 1.2 NNE 9 11 5 6 1014.2 1014.2 0.0
25/09:30pm 26.2 30.6 24.4 90 1.2 NNE 9 15 5 8 1014.0 1014.0 0.0
25/09:00pm 26.3 31.0 24.3 89 1.4 NE 7 13 4 7 1013.8 1013.8 0.0
25/08:30pm 26.2 31.2 24.8 92 1.0 NE 7 15 4 8 1013.5 1013.5 0.0
25/08:00pm 26.3 30.9 24.7 91 1.1 NNE 9 15 5 8 1013.4 1013.4 0.0
25/07:30pm 26.1 30.3 24.1 89 1.4 NE 9 15 5 8 1013.2 1013.2 0.0
25/07:00pm 26.3 30.2 24.3 89 1.4 NE 11 19 6 10 1012.9 1012.9 0.0
25/06:30pm 26.6 30.6 24.4 88 1.5 NE 11 17 6 9 1012.7 1012.7 0.0
25/06:00pm 26.8 30.2 24.1 85 1.9 NE 13 22 7 12 1012.4 1012.4 0.0
25/05:30pm 27.5 31.8 24.9 86 1.8 NE 11 19 6 10 1012.0 1012.0 0.0
25/05:00pm 27.4 31.2 24.7 85 1.9 NE 13 20 7 11 1011.8 1011.8 0.0
25/04:30pm 27.9 31.9 25.1 85 2.0 NE 13 22 7 12 1011.7 1011.7 0.0
25/04:00pm 28.2 31.6 24.6 81 2.5 NE 15 24 8 13 1011.7 1011.7 0.0
25/03:30pm 28.8 32.7 25.4 82 2.4 NE 15 22 8 12 1011.6 1011.6 0.0
25/03:00pm 28.7 31.7 24.7 79 2.8 NE 17 32 9 17 1011.8 1011.8 0.0
25/02:30pm 28.9 31.3 24.2 76 3.3 NE 19 28 10 15 1011.9 1011.9 0.0
25/02:00pm 28.9 31.5 24.9 79 2.8 NE 20 32 11 17 1011.8 1011.8 0.0
25/01:30pm 28.4 31.0 24.0 77 3.0 NE 17 30 9 16 1012.0 1012.0 0.0
25/01:00pm 28.5 30.8 24.1 77 3.0 NNE 19 28 10 15 1012.2 1012.2 0.0
25/12:30pm 28.3 31.5 24.9 82 2.4 NE 17 30 9 16 1012.6 1012.6 0.0
25/12:00pm 28.5 31.2 24.1 77 3.0 NE 17 32 9 17 1012.9 1012.9 0.0
25/11:30am 29.4 32.3 25.4 79 2.8 NNE 20 32 11 17 1013.1 1013.1 0.0
25/11:00am 29.4 32.2 24.9 77 3.2 NE 19 28 10 15 1013.4 1013.4 0.0
25/10:30am 28.4 29.6 23.8 76 3.2 NNE 24 33 13 18 1013.5 1013.5 0.0
25/10:00am 28.1 30.3 24.3 80 2.6 NNE 20 28 11 15 1013.2 1013.2 0.0
25/09:30am 28.1 30.4 24.1 79 2.8 NNE 19 28 10 15 1013.1 1013.1 0.0
25/09:00am 27.9 30.3 23.7 78 2.9 NNE 17 24 9 13 1013.1 1013.1 0.0
25/08:30am 28.6 33.4 24.4 78 2.9 NNE 7 13 4 7 1013.2 1013.2 0.0
25/08:00am 27.4 30.3 23.2 78 2.9 N 13 19 7 10 1013.1 1013.1 0.0
25/07:30am 26.9 32.2 24.4 86 1.7 N 4 7 2 4 1013.0 1013.0 0.0
25/07:00am 26.4 32.5 25.0 92 1.0 NNW 2 6 1 3 1012.8 1012.8 0.0
25/06:30am 26.3 32.8 25.1 93 0.8 CALM 0 0 0 0 1012.5 1012.5 0.0
25/06:00am 25.7 31.3 24.8 95 0.6 NNW 4 9 2 5 1012.3 1012.3 0.0
25/05:30am 25.6 30.8 25.1 97 0.3 N 7 9 4 5 1011.8 1011.8 0.0
25/05:00am 25.5 31.1 25.5 100 0.0 NNE 6 9 3 5 1012.0 1012.0 0.0
25/04:30am 25.5 31.1 25.5 100 0.0 N 6 7 3 4 1011.7 1011.7 0.0
25/04:00am 25.4 31.0 25.4 100 0.0 NNE 6 7 3 4 1011.4 1011.4 0.0
25/03:30am 25.4 31.7 25.4 100 0.0 N 2 6 1 3 1011.4 1011.4 0.0
25/03:00am 25.6 30.9 25.3 98 0.2 NW 7 9 4 5 1011.5 1011.5 0.0
25/02:30am 26.0 32.5 25.0 94 0.7 CALM 0 6 0 3 1011.6 1011.6 0.0
25/02:00am 26.1 31.3 25.1 94 0.7 NNW 7 11 4 6 1011.5 1011.5 0.0
25/01:30am 26.1 30.6 25.2 95 0.6 N 11 17 6 9 1011.4 1011.4 0.0
25/01:00am 26.0 31.4 26.0 100 0.0 N 9 13 5 7 1011.9 1011.9 0.0
25/12:30am 25.9 31.6 25.9 100 0.0 NNW 7 11 4 6 1012.1 1012.1 0.0
25/12:00am 25.6 31.3 25.6 100 0.0 N 6 7 3 4 1012.1 1012.1 0.0
 
Date/Time
EST
Temp
°C
App
Temp
°C
Dew
Point
°C
Rel
Hum
%
Delta-T
°C
Wind Press
QNH
hPa
Press
MSL
hPa
Rain since
9am
mm
Dir  Spd
km/h
Gust
km/h
Spd
kts
Gust
kts
24/11:30pm 25.8 32.0 25.8 100 0.0 NW 4 7 2 4 1012.4 1012.4 0.0
24/11:00pm 25.9 31.8 25.9 100 0.0 N 6 7 3 4 1012.3 1012.3 0.0
24/10:30pm 26.0 31.6 25.5 97 0.4 NNE 6 7 3 4 1012.1 1012.1 0.0
24/10:00pm 26.1 31.4 24.9 93 0.8 N 6 7 3 4 1012.2 1012.2 0.0
24/09:30pm 26.3 30.6 24.3 89 1.4 N 9 13 5 7 1012.1 1012.1 0.0
24/09:00pm 26.5 30.9 25.1 92 1.0 NNE 11 19 6 10 1011.7 1011.7 0.0
24/08:30pm 26.6 31.2 25.4 93 0.8 NNE 11 17 6 9 1011.6 1011.6 0.0
24/08:00pm 26.5 31.2 25.5 94 0.7 NNE 11 19 6 10 1011.2 1011.2 0.0
24/07:30pm 26.4 30.6 25.4 94 0.7 NNE 13 20 7 11 1010.8 1010.8 0.0
24/07:00pm 26.6 30.8 25.4 93 0.8 NNE 13 19 7 10 1010.7 1010.7 0.0
24/06:30pm 26.8 29.8 25.2 91 1.1 NNE 19 26 10 14 1010.2 1010.2 0.0
24/06:00pm 27.3 30.6 25.1 88 1.5 NNE 17 24 9 13 1009.9 1009.9 0.0
24/05:30pm 27.3 30.0 24.7 86 1.8 NNE 19 30 10 16 1009.6 1009.6 0.0
24/05:00pm 27.3 29.1 24.2 83 2.1 NNE 22 33 12 18 1009.4 1009.4 0.0
24/04:30pm 28.3 30.4 24.1 78 2.9 NNE 20 30 11 16 1009.4 1009.4 0.0
24/04:00pm 28.7 30.5 24.3 77 3.1 NNE 22 32 12 17 1009.5 1009.5 0.0
24/03:30pm 28.6 31.1 25.4 83 2.3 NNE 22 37 12 20 1009.5 1009.5 0.0
24/03:00pm 28.4 31.1 24.8 81 2.5 NNE 19 32 10 17 1010.0 1010.0 0.0
24/02:30pm 28.6 31.5 25.4 83 2.3 NNE 20 39 11 21 1010.2 1010.2 0.0
24/02:00pm 28.6 31.8 25.6 84 2.1 NNE 19 32 10 17 1010.3 1010.3 0.0
24/01:30pm 28.8 32.3 26.0 85 2.0 NNE 19 32 10 17 1010.7 1010.7 0.0
24/01:00pm 29.2 32.8 26.2 84 2.1 NNE 19 32 10 17 1011.1 1011.1 0.0
24/12:30pm 29.1 32.8 25.7 82 2.4 NNE 17 28 9 15 1011.4 1011.4 0.0
24/12:00pm 29.3 33.1 26.5 85 2.0 NNE 19 24 10 13 1011.8 1011.8 0.0
24/11:30am 29.1 32.8 25.1 79 2.8 NE 15 20 8 11 1012.4 1012.4 0.0
24/11:00am 29.1 32.6 24.2 75 3.4 N 13 20 7 11 1012.6 1012.6 0.0
24/10:30am 29.0 33.9 25.8 83 2.3 NE 11 19 6 10 1013.0 1013.0 0.0
24/10:00am 28.5 33.2 25.5 84 2.1 NE 11 19 6 10 1013.1 1013.1 0.0
24/09:30am 27.9 31.9 25.1 85 2.0 N 13 20 7 11 1013.3 1013.3 0.0
24/09:00am 27.9 32.3 25.1 85 2.0 N 11 17 6 9 1013.4 1013.4 2.8
24/08:30am 27.8 33.5 26.4 92 1.0 N 9 15 5 8 1013.4 1013.4 2.8
24/08:00am 26.7 31.1 25.1 91 1.1 NNW 11 17 6 9 1013.5 1013.5 2.8
24/07:30am 27.4 32.9 25.6 90 1.3 NNW 7 11 4 6 1013.4 1013.4 2.8
24/07:00am 26.6 32.6 26.4 99 0.1 NNW 7 9 4 5 1013.0 1013.0 2.8

Other formats

Comma delimited format used in spreadsheet applications
http://www.bom.gov.au/fwo/IDQ60801/IDQ60801.94570.axf

JavaScript Object Notation format (JSON) in row-major order
http://www.bom.gov.au/fwo/IDQ60801/IDQ60801.94570.json

Data quality

Most of these data are generated automatically and are frequently updated. Quality checks on data are not normally performed. It is possible for incorrect values to appear. Refer to information at About Latest Weather Observations and please check the disclaimer before using these data.